U.S. Weather Extremes for
Friday, August 17, 2018

High Temperature


109°F at Needles Airport, CA
109°F at Thermal, CA

Low Temperature


36°F at Leadville, CO

High Precipitation


3.46in at Watertown (awos), WI


Data for lower 48 states and courtesy of
NWS-CPC

North Georgia & Southern Appalachians METAR Reports

KDZJ - Blairsville, Georgia, USA
Distance from station: NNW 11mi, 18km
Updated: Sat, 18-Aug-2018 6:55pm CDT
Partly Cloudy
Partly Cloudy
 Wind from calm
Wind:
Calm
Temperature: 75°F , 24°C
Dew Point: 70°F , 21°C
Humidity: 83%
Barometer: 30.03 inHg , 1016.9 hPa
Clouds: Partly Cloudy
Visibility: 10 miles , 16 km
Cloud details: Partly Cloudy 8000 ft
2018/08/18 23:55 KDZJ 182355Z AUTO 00000KT 10SM SCT080 24/21 A3003 RMK AO2 LTG DSNT E AND SE T02350206 10278 20232 402780199
KAJR - Cornelia, Georgia, USA
Distance from station: SE 25mi, 41km
Updated: Sat, 18-Aug-2018 6:55pm CDT
Nearby thunderstorm, Partly cloudy
Nearby thunderstorm, Partly cloudy
 Wind from SSW
Wind:
SSW 7 mph 11 km/h
Temperature: 72°F , 22°C
Dew Point: 72°F , 22°C
Humidity: 100%
Barometer: 30.00 inHg , 1015.9 hPa
Summary: Nearby Thunderstorm
Clouds: Partly Cloudy
Visibility: 7 miles , 11 km
Cloud details: Partly Cloudy 7500 ft
Partly Cloudy 10000 ft
2018/08/18 23:55 KAJR 182355Z AUTO 20006KT 7SM VCTS SCT075 SCT100 22/22 A3000 RMK AO2 LTG DSNT N AND NE T02240224 10281 20223
 
KGVL - Gainesville, Georgia, USA
Distance from station: S 31mi, 50km
Updated: Sat, 18-Aug-2018 6:58pm CDT
Light thunderstorm, Rain, Overcast
Light thunderstorm, Rain, Overcast
 Wind from SW
Wind:
SW 5 mph 7 km/h
Temperature: 73°F , 23°C
Dew Point: 73°F , 23°C
Humidity: 100%
Barometer: 30.02 inHg , 1016.6 hPa
Summary: Light thunderstorm, Rain
Clouds: Overcast
Visibility: 8 miles , 13 km
Cloud details: Few Clouds 800 ft
Mostly Cloudy 5500 ft
Overcast 7500 ft
2018/08/18 23:58 KGVL 182358Z AUTO 23004KT 8SM -TSRA FEW008 BKN055 OVC075 23/23 A3002 RMK AO2 LTG DSNT E AND SW AND W TSB54 P0000 T02280228
KRHP - Andrews, North Carolina, USA
Distance from station: N 33mi, 53km
Updated: Sat, 18-Aug-2018 6:50pm CDT
Partly Cloudy
Partly Cloudy
 Wind from calm
Wind:
Calm
Temperature: 75°F , 24°C
Dew Point: 72°F , 22°C
Humidity: 89%
Barometer: 30.00 inHg , 1015.9 hPa
Clouds: Partly Cloudy
Visibility: 10 miles , 16 km
Cloud details: Partly Cloudy 2700 ft
Partly Cloudy 11000 ft
2018/08/18 23:50 KRHP 182350Z AUTO 00000KT 10SM SCT027 SCT110 24/22 A3000 RMK AO2 T02360223 10274 20235
 
KJZP - Jasper, Georgia, USA
Distance from station: WSW 35mi, 57km
Updated: Sat, 18-Aug-2018 6:55pm CDT
Light rain, Overcast
Light rain, Overcast
 Wind from calm
Wind:
Calm
Temperature: 73°F , 23°C
Dew Point: 72°F , 22°C
Humidity: 94%
Barometer: 30.03 inHg , 1016.9 hPa
Summary: Light Rain
Clouds: Overcast
Visibility: 2 1/2 miles , 2 km
Cloud details: Partly Cloudy 1100 ft
Mostly Cloudy 3700 ft
Overcast 7500 ft
2018/08/18 23:55 KJZP 182355Z AUTO 00000KT 2 1/2SM -RA SCT011 BKN037 OVC075 23/22 A3003 RMK AO2 VIS 1/2V5 6//// T02330220 10281 20233 PNO
KTOC - Toccoa, Georgia, USA
Distance from station: E 36mi, 58km
Updated: Sat, 18-Aug-2018 6:55pm CDT
Mostly Cloudy
Mostly Cloudy
 Wind from SSW
Wind:
SSW 6 mph 9 km/h
Temperature: 77°F , 25°C
Dew Point: 75°F , 24°C
Humidity: 94%
Barometer: 29.97 inHg , 1014.9 hPa
Clouds: Mostly Cloudy
Visibility: 10 miles , 16 km
Cloud details: Mostly Cloudy 9000 ft
2018/08/18 23:55 KTOC 182355Z AUTO 21005KT 10SM BKN090 25/24 A2997 RMK AO2 T02510243 10331 20251
 
KCNI - Canton/Cherokee, Georgia, USA
Distance from station: SW 39mi, 63km
Updated: Sat, 18-Aug-2018 6:55pm CDT
Mostly Cloudy
Mostly Cloudy
 Wind from S
Wind:
S 6 mph 9 km/h
Temperature: 77°F , 25°C
Dew Point: 72°F , 22°C
Humidity: 83%
Barometer: 30.01 inHg , 1016.3 hPa
Clouds: Mostly Cloudy
Visibility: 10 miles , 16 km
Cloud details: Partly Cloudy 2900 ft
Partly Cloudy 3800 ft
Mostly Cloudy 4900 ft
2018/08/18 23:55 KCNI 182355Z AUTO 19005KT 10SM SCT029 SCT038 BKN049 25/22 A3001 RMK AO2
KJCA - Jefferson, Georgia, USA
Distance from station: SSE 41mi, 67km
Updated: Sat, 18-Aug-2018 6:55pm CDT

 Wind from WSW
Wind:
WSW 12 mph 19 km/h
, Gust: 18 mph 30 km/h
Visibility: 10 miles , 16 km
2018/08/18 23:55 KJCA 182355Z AUTO 24010G16KT 10SM -VCTSRA SCT043 BKN055 BKN090 23/22 A2999 RMK AO2 LTG DSNT NE AND E T02340219 10300 20224 403000222 60095
 
K1A5 - Macon/Franklin, North Carolina, USA
Distance from station: NE 45mi, 73km
Updated: Sat, 18-Aug-2018 6:50pm CDT
Clear
Clear
 Wind from calm
Wind:
Calm
Temperature: 73°F , 23°C
Dew Point: 72°F , 22°C
Humidity: 94%
Barometer: 30.01 inHg , 1016.3 hPa
Clouds: Clear
Visibility: 10 miles , 16 km
2018/08/18 23:50 K1A5 182350Z AUTO 00000KT 10SM CLR 23/22 A3001 RMK AO2 60002 T02340222 10265 20222
KLZU - Lawrenceville, Georgia, USA
Distance from station: S 50mi, 81km
Updated: Sat, 18-Aug-2018 6:56pm CDT
Mostly Cloudy
Mostly Cloudy
 Wind from SW
Wind:
SW 8 mph 13 km/h
Temperature: 73°F , 23°C
Dew Point: 72°F , 22°C
Humidity: 94%
Barometer: 30.00 inHg , 1015.9 hPa
Clouds: Mostly Cloudy
Visibility: 7 miles , 11 km
Cloud details: Partly Cloudy 4800 ft
Mostly Cloudy 6500 ft
Mostly Cloudy 12000 ft
2018/08/18 23:56 KLZU 182356Z 22007KT 7SM SCT048 BKN065 BKN120 23/22 A3000 RMK AO2 LTG DSNT N AND NW RAE54 SLP149 P0005 60019 T02330222 10306 20228 50000 $
 
K18A - Canon/Franklin, Georgia, USA
Distance from station: ESE 51mi, 82km
Updated: Sat, 18-Aug-2018 6:55pm CDT
Mostly Cloudy
Mostly Cloudy
 Wind from SW
Wind:
SW 6 mph 9 km/h
Temperature: 73°F , 23°C
Dew Point: 72°F , 22°C
Humidity: 94%
Barometer: 29.99 inHg , 1015.6 hPa
Clouds: Mostly Cloudy
Visibility: 10 miles , 16 km
Cloud details: Partly Cloudy 3800 ft
Partly Cloudy 5000 ft
Mostly Cloudy 10000 ft
2018/08/18 23:55 K18A 182355Z AUTO 22005KT 10SM SCT038 SCT050 BKN100 23/22 A2999 RMK AO2 LTG DSNT E AND W T02300220 10302 20224
KWDR - Winder/Barrow, Georgia, USA
Distance from station: SSE 52mi, 84km
Updated: Sat, 18-Aug-2018 6:56pm CDT
Light rain, Mostly cloudy
Light rain, Mostly cloudy
 Wind from SW
Wind:
SW 7 mph 11 km/h
Temperature: 75°F , 24°C
Dew Point: 73°F , 23°C
Humidity: 94%
Barometer: 30.02 inHg , 1016.6 hPa
Summary: Light Rain
Clouds: Mostly Cloudy
Visibility: 10 miles , 16 km
Cloud details: Partly Cloudy 6000 ft
Partly Cloudy 7000 ft
Mostly Cloudy 12000 ft
2018/08/18 23:56 KWDR 182356Z AUTO 23006KT 10SM -RA SCT060 SCT070 BKN120 24/23 A3002 RMK AO1 LTG DSNT NW THRU E
 
KDNN - Dalton, Georgia, USA
Distance from station: W 54mi, 87km
Updated: Sat, 18-Aug-2018 6:55pm CDT
Mostly Cloudy
Mostly Cloudy
 Wind from SSE
Wind:
SSE 3 mph 6 km/h
Temperature: 79°F , 26°C
Dew Point: 73°F , 23°C
Humidity: 84%
Barometer: 29.96 inHg , 1014.6 hPa
Clouds: Mostly Cloudy
Visibility: 10 miles , 16 km
Cloud details: Partly Cloudy 3600 ft
Partly Cloudy 4400 ft
Mostly Cloudy 11000 ft
2018/08/18 23:55 KDNN 182355Z AUTO 15003KT 10SM SCT036 SCT044 BKN110 26/23 A2996 RMK AO2
K24A - Sylva, North Carolina, USA
Distance from station: NE 58mi, 93km
Updated: Sat, 18-Aug-2018 6:40pm CDT
Nearby thunderstorm, Partly cloudy
Nearby thunderstorm, Partly cloudy
 Wind from calm
Wind:
Calm
Temperature: 73°F , 23°C
Dew Point: 68°F , 20°C
Humidity: 83%
Barometer: 30.06 inHg , 1017.9 hPa
Summary: Nearby Thunderstorm
Clouds: Partly Cloudy
Visibility: 10 miles , 16 km
Cloud details: Partly Cloudy 2700 ft
Partly Cloudy 3200 ft
Partly Cloudy 4600 ft
2018/08/18 23:40 K24A 182340Z AUTO 00000KT 10SM VCTS SCT027 SCT032 SCT046 23/20 A3006 RMK AO2 LTG DSNT SE AND NW T02270197
 
KCEU - Clemson, South Carolina, USA
Distance from station: E 59mi, 95km
Updated: Sat, 18-Aug-2018 6:54pm CDT
Mostly Cloudy
Mostly Cloudy
 Wind from WSW
Wind:
WSW 7 mph 11 km/h
Temperature: 73°F , 23°C
Dew Point: 72°F , 22°C
Humidity: 94%
Barometer: 29.97 inHg , 1014.9 hPa
Clouds: Mostly Cloudy
Visibility: 10 miles , 16 km
Cloud details: Few Clouds 6000 ft
Partly Cloudy 9000 ft
Mostly Cloudy 12000 ft
2018/08/18 23:54 KCEU 182354Z AUTO 24006KT 10SM FEW060 SCT090 BKN120 23/22 A2997 RMK AO2 RAE05B29E39 SLP139 P0001 60012 T02330217 10294 20233 52007
KMMI - Athens/Mcminn, Tennessee, USA
Distance from station: NW 60mi, 97km
Updated: Sat, 18-Aug-2018 6:55pm CDT
Clear
Clear
 Wind from calm
Wind:
Calm
Temperature: 81°F , 27°C
Heat Index: 86°F , 30°C
Dew Point: 73°F , 23°C
Humidity: 79%
Barometer: 29.95 inHg , 1014.2 hPa
Clouds: Clear
Visibility: 10 miles , 16 km
2018/08/18 23:55 KMMI 182355Z AUTO 00000KT 10SM CLR 27/23 A2995 RMK A01
 
KCZL - Calhoun, Georgia, USA
Distance from station: WSW 61mi, 97km
Updated: Sat, 18-Aug-2018 6:55pm CDT
Mostly Cloudy
Mostly Cloudy
 Wind from SW
Wind:
SW 5 mph 7 km/h
Temperature: 81°F , 27°C
Heat Index: 85°F , 29°C
Dew Point: 72°F , 22°C
Humidity: 74%
Barometer: 29.97 inHg , 1014.9 hPa
Clouds: Mostly Cloudy
Visibility: 10 miles , 16 km
Cloud details: Partly Cloudy 6000 ft
Mostly Cloudy 9000 ft
2018/08/18 23:55 KCZL 182355Z AUTO 22004KT 10SM SCT060 BKN090 27/22 A2997 RMK AO2
KPDK - Peachtree/Dekalb, Georgia, USA
Distance from station: SSW 61mi, 98km
Updated: Sat, 18-Aug-2018 6:53pm CDT
Overcast
Overcast
 Wind from SW
Wind:
SW 8 mph 13 km/h
Temperature: 73°F , 23°C
Dew Point: 72°F , 22°C
Humidity: 94%
Barometer: 30.01 inHg , 1016.3 hPa
Clouds: Overcast
Visibility: 10 miles , 16 km
Cloud details: Few Clouds 6500 ft
Overcast 9000 ft
2018/08/18 23:53 KPDK 182353Z 22007KT 10SM FEW065 OVC090 23/22 A3001 RMK AO2 RAE27 SLP146 P0000 60087 T02330217 10306 20233 53006
 
KRZR - Cleveland Reg., Tennessee, USA
Distance from station: NW 61mi, 98km
Updated: Sat, 18-Aug-2018 6:55pm CDT
Partly Cloudy
Partly Cloudy
 Wind from S
Wind:
S 5 mph 7 km/h
Temperature: 82°F , 28°C
Heat Index: 87°F , 31°C
Dew Point: 73°F , 23°C
Humidity: 74%
Barometer: 29.92 inHg , 1013.2 hPa
Clouds: Partly Cloudy
Visibility: 10 miles , 16 km
Cloud details: Partly Cloudy 8500 ft
2018/08/18 23:55 KRZR 182355Z AUTO 19004KT 10SM SCT085 28/23 A2992 RMK A01
KRYY - Marietta Mccolum, Georgia, USA
Distance from station: SW 62mi, 99km
Updated: Sat, 18-Aug-2018 6:53pm CDT
Overcast
Overcast
 Wind from SSW
Wind:
SSW 6 mph 9 km/h
Temperature: 75°F , 24°C
Dew Point: 73°F , 23°C
Humidity: 94%
Barometer: 30.00 inHg , 1015.9 hPa
Clouds: Overcast
Visibility: 10 miles , 16 km
Cloud details: Mostly Cloudy 1000 ft
Overcast 1400 ft
2018/08/18 23:53 KRYY 182353Z 20005KT 10SM BKN010 OVC014 24/23 A3000 RMK AO2 CIG 007V011

Metar display script from Saratoga-Weather.org